sensor_id;sensor_type;location;lat;lon;timestamp;P1;durP1;ratioP1;P2;durP2;ratioP2
13083;SDS011;6608;48.790;9.198;2023-03-01T00:01:26;87.13;;;53.07;;
13083;SDS011;6608;48.790;9.198;2023-03-01T00:03:54;88.17;;;53.53;;
13083;SDS011;6608;48.790;9.198;2023-03-01T00:06:20;83.63;;;52.23;;
13083;SDS011;6608;48.790;9.198;2023-03-01T00:08:47;85.60;;;52.67;;
13083;SDS011;6608;48.790;9.198;2023-03-01T00:11:16;86.13;;;52.77;;
13083;SDS011;6608;48.790;9.198;2023-03-01T00:13:44;87.60;;;52.93;;
13083;SDS011;6608;48.790;9.198;2023-03-01T00:16:12;84.40;;;52.83;;
13083;SDS011;6608;48.790;9.198;2023-03-01T00:18:39;87.03;;;53.77;;
13083;SDS011;6608;48.790;9.198;2023-03-01T00:21:05;85.13;;;53.27;;
13083;SDS011;6608;48.790;9.198;2023-03-01T00:23:33;88.00;;;53.77;;
13083;SDS011;6608;48.790;9.198;2023-03-01T00:25:59;85.70;;;53.10;;
13083;SDS011;6608;48.790;9.198;2023-03-01T00:28:27;86.27;;;53.53;;
13083;SDS011;6608;48.790;9.198;2023-03-01T00:30:53;84.73;;;53.27;;
13083;SDS011;6608;48.790;9.198;2023-03-01T00:33:20;85.13;;;52.70;;
13083;SDS011;6608;48.790;9.198;2023-03-01T00:35:46;85.17;;;52.53;;
13083;SDS011;6608;48.790;9.198;2023-03-01T00:38:13;84.57;;;53.53;;
13083;SDS011;6608;48.790;9.198;2023-03-01T00:40:39;85.00;;;53.47;;
13083;SDS011;6608;48.790;9.198;2023-03-01T00:43:05;82.90;;;53.00;;
13083;SDS011;6608;48.790;9.198;2023-03-01T00:45:33;84.17;;;53.03;;
13083;SDS011;6608;48.790;9.198;2023-03-01T00:48:00;81.87;;;52.40;;
13083;SDS011;6608;48.790;9.198;2023-03-01T00:50:26;84.87;;;53.60;;
13083;SDS011;6608;48.790;9.198;2023-03-01T00:52:53;83.37;;;52.50;;
13083;SDS011;6608;48.790;9.198;2023-03-01T00:55:19;88.13;;;53.40;;
13083;SDS011;6608;48.790;9.198;2023-03-01T00:57:46;87.93;;;52.77;;
13083;SDS011;6608;48.790;9.198;2023-03-01T01:00:12;81.33;;;52.43;;
13083;SDS011;6608;48.790;9.198;2023-03-01T01:02:40;83.90;;;52.57;;
13083;SDS011;6608;48.790;9.198;2023-03-01T01:05:07;81.57;;;52.13;;
13083;SDS011;6608;48.790;9.198;2023-03-01T01:07:33;84.60;;;53.10;;
13083;SDS011;6608;48.790;9.198;2023-03-01T01:10:00;84.37;;;52.97;;
13083;SDS011;6608;48.790;9.198;2023-03-01T01:12:26;84.13;;;52.90;;
13083;SDS011;6608;48.790;9.198;2023-03-01T01:14:52;85.73;;;53.50;;
13083;SDS011;6608;48.790;9.198;2023-03-01T01:17:19;83.53;;;52.50;;
13083;SDS011;6608;48.790;9.198;2023-03-01T01:19:47;84.27;;;53.00;;
13083;SDS011;6608;48.790;9.198;2023-03-01T01:22:13;83.13;;;53.13;;
13083;SDS011;6608;48.790;9.198;2023-03-01T01:24:39;83.10;;;52.47;;
13083;SDS011;6608;48.790;9.198;2023-03-01T01:27:06;81.83;;;51.87;;
13083;SDS011;6608;48.790;9.198;2023-03-01T01:29:33;86.17;;;53.40;;
13083;SDS011;6608;48.790;9.198;2023-03-01T01:31:59;83.80;;;52.30;;
13083;SDS011;6608;48.790;9.198;2023-03-01T01:34:25;82.43;;;52.33;;
13083;SDS011;6608;48.790;9.198;2023-03-01T01:36:53;84.97;;;52.10;;
13083;SDS011;6608;48.790;9.198;2023-03-01T01:39:20;82.83;;;52.53;;
13083;SDS011;6608;48.790;9.198;2023-03-01T01:41:46;84.80;;;53.10;;
13083;SDS011;6608;48.790;9.198;2023-03-01T01:44:14;82.80;;;52.97;;
13083;SDS011;6608;48.790;9.198;2023-03-01T01:46:41;82.90;;;52.57;;
13083;SDS011;6608;48.790;9.198;2023-03-01T01:49:11;83.23;;;52.23;;
13083;SDS011;6608;48.790;9.198;2023-03-01T01:51:42;81.77;;;51.80;;
13083;SDS011;6608;48.790;9.198;2023-03-01T01:54:14;82.80;;;52.10;;
13083;SDS011;6608;48.790;9.198;2023-03-01T01:56:42;83.80;;;52.00;;
13083;SDS011;6608;48.790;9.198;2023-03-01T01:59:08;82.93;;;53.00;;
13083;SDS011;6608;48.790;9.198;2023-03-01T02:01:35;83.10;;;52.13;;
13083;SDS011;6608;48.790;9.198;2023-03-01T02:04:02;82.07;;;52.63;;
13083;SDS011;6608;48.790;9.198;2023-03-01T02:06:29;82.37;;;52.17;;
13083;SDS011;6608;48.790;9.198;2023-03-01T02:08:57;81.90;;;52.70;;
13083;SDS011;6608;48.790;9.198;2023-03-01T02:11:25;83.87;;;52.97;;
13083;SDS011;6608;48.790;9.198;2023-03-01T02:13:53;83.60;;;52.70;;
13083;SDS011;6608;48.790;9.198;2023-03-01T02:16:20;82.57;;;53.37;;
13083;SDS011;6608;48.790;9.198;2023-03-01T02:18:46;85.97;;;53.80;;
13083;SDS011;6608;48.790;9.198;2023-03-01T02:21:17;83.27;;;53.03;;
13083;SDS011;6608;48.790;9.198;2023-03-01T02:23:46;85.83;;;53.10;;
13083;SDS011;6608;48.790;9.198;2023-03-01T02:26:16;88.13;;;53.97;;
13083;SDS011;6608;48.790;9.198;2023-03-01T02:28:45;86.83;;;53.17;;
13083;SDS011;6608;48.790;9.198;2023-03-01T02:31:14;84.50;;;52.97;;
13083;SDS011;6608;48.790;9.198;2023-03-01T02:33:59;80.57;;;52.13;;
13083;SDS011;6608;48.790;9.198;2023-03-01T02:36:26;83.10;;;52.67;;
13083;SDS011;6608;48.790;9.198;2023-03-01T02:38:56;85.00;;;52.93;;
13083;SDS011;6608;48.790;9.198;2023-03-01T02:41:23;82.10;;;52.07;;
13083;SDS011;6608;48.790;9.198;2023-03-01T02:43:51;83.73;;;52.77;;
13083;SDS011;6608;48.790;9.198;2023-03-01T02:46:19;85.90;;;53.93;;
13083;SDS011;6608;48.790;9.198;2023-03-01T02:48:46;83.33;;;53.03;;
13083;SDS011;6608;48.790;9.198;2023-03-01T02:51:22;85.20;;;52.97;;
13083;SDS011;6608;48.790;9.198;2023-03-01T02:53:53;85.30;;;53.23;;
13083;SDS011;6608;48.790;9.198;2023-03-01T02:56:21;84.70;;;53.10;;
13083;SDS011;6608;48.790;9.198;2023-03-01T02:58:47;84.20;;;53.53;;
13083;SDS011;6608;48.790;9.198;2023-03-01T03:01:18;84.97;;;53.60;;
13083;SDS011;6608;48.790;9.198;2023-03-01T03:03:44;84.67;;;53.37;;
13083;SDS011;6608;48.790;9.198;2023-03-01T03:06:11;85.87;;;53.83;;
13083;SDS011;6608;48.790;9.198;2023-03-01T03:08:38;88.67;;;53.33;;
13083;SDS011;6608;48.790;9.198;2023-03-01T03:11:04;83.70;;;52.93;;
13083;SDS011;6608;48.790;9.198;2023-03-01T03:13:31;88.10;;;53.87;;
13083;SDS011;6608;48.790;9.198;2023-03-01T03:15:57;87.73;;;53.83;;
13083;SDS011;6608;48.790;9.198;2023-03-01T03:18:25;88.07;;;54.90;;
13083;SDS011;6608;48.790;9.198;2023-03-01T03:20:52;87.60;;;54.00;;
13083;SDS011;6608;48.790;9.198;2023-03-01T03:23:19;88.17;;;54.50;;
13083;SDS011;6608;48.790;9.198;2023-03-01T03:25:47;87.63;;;54.63;;
13083;SDS011;6608;48.790;9.198;2023-03-01T03:28:14;86.37;;;54.37;;
13083;SDS011;6608;48.790;9.198;2023-03-01T03:30:41;82.80;;;51.30;;
13083;SDS011;6608;48.790;9.198;2023-03-01T03:33:08;83.97;;;53.50;;
13083;SDS011;6608;48.790;9.198;2023-03-01T03:35:38;89.63;;;55.07;;
13083;SDS011;6608;48.790;9.198;2023-03-01T03:38:06;88.33;;;54.93;;
13083;SDS011;6608;48.790;9.198;2023-03-01T03:40:35;87.53;;;54.13;;
13083;SDS011;6608;48.790;9.198;2023-03-01T03:43:02;86.53;;;53.97;;
13083;SDS011;6608;48.790;9.198;2023-03-01T03:45:28;86.80;;;54.30;;
13083;SDS011;6608;48.790;9.198;2023-03-01T03:47:58;85.87;;;53.57;;
13083;SDS011;6608;48.790;9.198;2023-03-01T03:50:25;87.23;;;54.57;;
13083;SDS011;6608;48.790;9.198;2023-03-01T03:52:52;90.67;;;54.87;;
13083;SDS011;6608;48.790;9.198;2023-03-01T03:55:19;84.53;;;53.23;;
13083;SDS011;6608;48.790;9.198;2023-03-01T03:57:45;89.03;;;55.63;;
13083;SDS011;6608;48.790;9.198;2023-03-01T04:00:16;89.10;;;55.53;;
13083;SDS011;6608;48.790;9.198;2023-03-01T04:02:43;87.17;;;54.57;;
13083;SDS011;6608;48.790;9.198;2023-03-01T04:05:10;87.33;;;55.17;;
13083;SDS011;6608;48.790;9.198;2023-03-01T04:07:37;86.80;;;54.17;;
13083;SDS011;6608;48.790;9.198;2023-03-01T04:10:06;86.93;;;54.00;;
13083;SDS011;6608;48.790;9.198;2023-03-01T04:12:33;89.30;;;54.97;;
13083;SDS011;6608;48.790;9.198;2023-03-01T04:15:00;88.37;;;54.70;;
13083;SDS011;6608;48.790;9.198;2023-03-01T04:17:26;87.63;;;53.63;;
13083;SDS011;6608;48.790;9.198;2023-03-01T04:19:52;87.37;;;54.43;;
13083;SDS011;6608;48.790;9.198;2023-03-01T04:22:19;88.60;;;55.27;;
13083;SDS011;6608;48.790;9.198;2023-03-01T04:24:45;87.67;;;54.00;;
13083;SDS011;6608;48.790;9.198;2023-03-01T04:27:13;87.60;;;54.87;;
13083;SDS011;6608;48.790;9.198;2023-03-01T04:29:39;85.70;;;53.37;;
13083;SDS011;6608;48.790;9.198;2023-03-01T04:32:06;86.70;;;54.27;;
13083;SDS011;6608;48.790;9.198;2023-03-01T04:34:33;88.00;;;54.57;;
13083;SDS011;6608;48.790;9.198;2023-03-01T04:36:59;87.80;;;55.10;;
13083;SDS011;6608;48.790;9.198;2023-03-01T04:39:26;92.37;;;54.90;;
13083;SDS011;6608;48.790;9.198;2023-03-01T04:41:52;86.13;;;54.07;;
13083;SDS011;6608;48.790;9.198;2023-03-01T04:44:20;91.70;;;55.27;;
13083;SDS011;6608;48.790;9.198;2023-03-01T04:46:48;89.47;;;55.40;;
13083;SDS011;6608;48.790;9.198;2023-03-01T04:49:14;85.83;;;54.20;;
13083;SDS011;6608;48.790;9.198;2023-03-01T04:51:41;86.77;;;54.30;;
13083;SDS011;6608;48.790;9.198;2023-03-01T04:54:08;89.90;;;55.23;;
13083;SDS011;6608;48.790;9.198;2023-03-01T04:56:35;87.13;;;53.93;;
13083;SDS011;6608;48.790;9.198;2023-03-01T04:59:01;90.97;;;55.27;;
13083;SDS011;6608;48.790;9.198;2023-03-01T05:01:32;88.13;;;55.13;;
13083;SDS011;6608;48.790;9.198;2023-03-01T05:04:00;89.23;;;54.97;;
13083;SDS011;6608;48.790;9.198;2023-03-01T05:06:28;92.43;;;55.30;;
13083;SDS011;6608;48.790;9.198;2023-03-01T05:08:54;87.87;;;54.93;;
13083;SDS011;6608;48.790;9.198;2023-03-01T05:11:20;87.93;;;55.33;;
13083;SDS011;6608;48.790;9.198;2023-03-01T05:13:47;89.63;;;54.70;;
13083;SDS011;6608;48.790;9.198;2023-03-01T05:16:15;86.20;;;54.47;;
13083;SDS011;6608;48.790;9.198;2023-03-01T05:18:43;89.03;;;54.53;;
13083;SDS011;6608;48.790;9.198;2023-03-01T05:21:11;85.03;;;53.97;;
13083;SDS011;6608;48.790;9.198;2023-03-01T05:23:40;90.87;;;56.17;;
13083;SDS011;6608;48.790;9.198;2023-03-01T05:26:07;88.47;;;55.07;;
13083;SDS011;6608;48.790;9.198;2023-03-01T05:28:34;90.13;;;54.80;;
13083;SDS011;6608;48.790;9.198;2023-03-01T05:31:00;91.27;;;55.70;;
13083;SDS011;6608;48.790;9.198;2023-03-01T05:33:27;90.20;;;55.53;;
13083;SDS011;6608;48.790;9.198;2023-03-01T05:35:59;88.47;;;54.70;;
13083;SDS011;6608;48.790;9.198;2023-03-01T05:38:25;93.73;;;56.73;;
13083;SDS011;6608;48.790;9.198;2023-03-01T05:40:52;88.20;;;55.30;;
13083;SDS011;6608;48.790;9.198;2023-03-01T05:43:18;90.70;;;55.20;;
13083;SDS011;6608;48.790;9.198;2023-03-01T05:45:45;87.03;;;53.90;;
13083;SDS011;6608;48.790;9.198;2023-03-01T05:48:12;89.53;;;54.87;;
13083;SDS011;6608;48.790;9.198;2023-03-01T05:50:39;91.37;;;55.87;;
13083;SDS011;6608;48.790;9.198;2023-03-01T05:53:07;91.70;;;55.57;;
13083;SDS011;6608;48.790;9.198;2023-03-01T05:55:35;89.63;;;55.73;;
13083;SDS011;6608;48.790;9.198;2023-03-01T05:58:02;89.13;;;55.17;;
13083;SDS011;6608;48.790;9.198;2023-03-01T06:00:29;89.03;;;55.80;;
13083;SDS011;6608;48.790;9.198;2023-03-01T06:02:56;89.17;;;54.77;;
13083;SDS011;6608;48.790;9.198;2023-03-01T06:05:23;89.20;;;55.33;;
13083;SDS011;6608;48.790;9.198;2023-03-01T06:07:50;90.23;;;55.57;;
13083;SDS011;6608;48.790;9.198;2023-03-01T06:10:19;89.07;;;56.03;;
13083;SDS011;6608;48.790;9.198;2023-03-01T06:12:46;90.20;;;55.07;;
13083;SDS011;6608;48.790;9.198;2023-03-01T06:15:13;88.33;;;55.53;;
13083;SDS011;6608;48.790;9.198;2023-03-01T06:17:40;87.97;;;54.97;;
13083;SDS011;6608;48.790;9.198;2023-03-01T06:20:08;92.10;;;56.40;;
13083;SDS011;6608;48.790;9.198;2023-03-01T06:22:34;89.77;;;55.63;;
13083;SDS011;6608;48.790;9.198;2023-03-01T06:25:01;89.33;;;55.43;;
13083;SDS011;6608;48.790;9.198;2023-03-01T06:27:29;90.50;;;55.57;;
13083;SDS011;6608;48.790;9.198;2023-03-01T06:29:55;92.73;;;56.77;;
13083;SDS011;6608;48.790;9.198;2023-03-01T06:32:21;89.30;;;55.63;;
13083;SDS011;6608;48.790;9.198;2023-03-01T06:34:48;91.30;;;55.70;;
13083;SDS011;6608;48.790;9.198;2023-03-01T06:37:15;88.43;;;55.27;;
13083;SDS011;6608;48.790;9.198;2023-03-01T06:39:41;90.40;;;56.53;;
13083;SDS011;6608;48.790;9.198;2023-03-01T06:42:08;89.07;;;54.83;;
13083;SDS011;6608;48.790;9.198;2023-03-01T06:44:36;88.70;;;54.87;;
13083;SDS011;6608;48.790;9.198;2023-03-01T06:47:02;87.00;;;55.27;;
13083;SDS011;6608;48.790;9.198;2023-03-01T06:49:29;91.50;;;56.30;;
13083;SDS011;6608;48.790;9.198;2023-03-01T06:51:56;89.53;;;55.80;;
13083;SDS011;6608;48.790;9.198;2023-03-01T06:54:22;88.03;;;55.53;;
13083;SDS011;6608;48.790;9.198;2023-03-01T06:56:49;95.27;;;56.57;;
13083;SDS011;6608;48.790;9.198;2023-03-01T06:59:16;90.30;;;56.23;;
13083;SDS011;6608;48.790;9.198;2023-03-01T07:01:44;91.20;;;55.93;;
13083;SDS011;6608;48.790;9.198;2023-03-01T07:04:11;93.40;;;56.37;;
13083;SDS011;6608;48.790;9.198;2023-03-01T07:06:38;90.90;;;56.17;;
13083;SDS011;6608;48.790;9.198;2023-03-01T07:09:04;88.17;;;54.77;;
13083;SDS011;6608;48.790;9.198;2023-03-01T07:11:31;88.17;;;55.03;;
13083;SDS011;6608;48.790;9.198;2023-03-01T07:13:57;89.83;;;56.30;;
13083;SDS011;6608;48.790;9.198;2023-03-01T07:16:25;89.10;;;54.37;;
13083;SDS011;6608;48.790;9.198;2023-03-01T07:18:52;91.40;;;56.17;;
13083;SDS011;6608;48.790;9.198;2023-03-01T07:21:19;88.50;;;55.17;;
13083;SDS011;6608;48.790;9.198;2023-03-01T07:23:46;92.47;;;56.37;;
13083;SDS011;6608;48.790;9.198;2023-03-01T07:26:13;89.53;;;54.67;;
13083;SDS011;6608;48.790;9.198;2023-03-01T07:28:39;89.97;;;56.47;;
13083;SDS011;6608;48.790;9.198;2023-03-01T07:31:06;93.53;;;57.60;;
13083;SDS011;6608;48.790;9.198;2023-03-01T07:33:32;94.50;;;57.67;;
13083;SDS011;6608;48.790;9.198;2023-03-01T07:36:01;93.97;;;56.83;;
13083;SDS011;6608;48.790;9.198;2023-03-01T07:38:28;93.10;;;57.10;;
13083;SDS011;6608;48.790;9.198;2023-03-01T07:40:57;91.83;;;57.30;;
13083;SDS011;6608;48.790;9.198;2023-03-01T07:43:24;96.07;;;57.83;;
13083;SDS011;6608;48.790;9.198;2023-03-01T07:45:50;97.70;;;57.73;;
13083;SDS011;6608;48.790;9.198;2023-03-01T07:48:16;94.87;;;56.80;;
13083;SDS011;6608;48.790;9.198;2023-03-01T07:50:43;94.17;;;57.97;;
13083;SDS011;6608;48.790;9.198;2023-03-01T07:53:11;99.33;;;57.77;;
13083;SDS011;6608;48.790;9.198;2023-03-01T07:55:37;95.17;;;58.13;;
13083;SDS011;6608;48.790;9.198;2023-03-01T07:58:04;97.37;;;59.23;;
13083;SDS011;6608;48.790;9.198;2023-03-01T08:00:30;100.67;;;60.67;;
13083;SDS011;6608;48.790;9.198;2023-03-01T08:02:58;95.67;;;58.50;;
13083;SDS011;6608;48.790;9.198;2023-03-01T08:05:24;93.00;;;57.33;;
13083;SDS011;6608;48.790;9.198;2023-03-01T08:07:51;95.30;;;56.63;;
13083;SDS011;6608;48.790;9.198;2023-03-01T08:10:19;100.40;;;58.60;;
13083;SDS011;6608;48.790;9.198;2023-03-01T08:12:45;97.10;;;58.57;;
13083;SDS011;6608;48.790;9.198;2023-03-01T08:15:12;100.50;;;58.00;;
13083;SDS011;6608;48.790;9.198;2023-03-01T08:17:38;96.73;;;57.60;;
13083;SDS011;6608;48.790;9.198;2023-03-01T08:20:05;104.93;;;58.83;;
13083;SDS011;6608;48.790;9.198;2023-03-01T08:22:32;96.43;;;57.27;;
13083;SDS011;6608;48.790;9.198;2023-03-01T08:24:58;100.10;;;60.77;;
13083;SDS011;6608;48.790;9.198;2023-03-01T08:27:26;100.27;;;58.73;;
13083;SDS011;6608;48.790;9.198;2023-03-01T08:29:53;97.50;;;58.27;;
13083;SDS011;6608;48.790;9.198;2023-03-01T08:32:19;97.53;;;58.17;;
13083;SDS011;6608;48.790;9.198;2023-03-01T08:34:46;96.10;;;57.83;;
13083;SDS011;6608;48.790;9.198;2023-03-01T08:37:12;97.03;;;58.83;;
13083;SDS011;6608;48.790;9.198;2023-03-01T08:39:39;108.40;;;63.07;;
13083;SDS011;6608;48.790;9.198;2023-03-01T08:42:05;110.57;;;64.73;;
13083;SDS011;6608;48.790;9.198;2023-03-01T08:44:33;97.57;;;57.77;;
13083;SDS011;6608;48.790;9.198;2023-03-01T08:47:00;95.37;;;58.20;;
13083;SDS011;6608;48.790;9.198;2023-03-01T08:49:27;99.30;;;58.40;;
13083;SDS011;6608;48.790;9.198;2023-03-01T08:51:54;103.07;;;59.47;;
13083;SDS011;6608;48.790;9.198;2023-03-01T08:54:20;113.07;;;65.80;;
13083;SDS011;6608;48.790;9.198;2023-03-01T08:56:47;104.97;;;61.13;;
13083;SDS011;6608;48.790;9.198;2023-03-01T08:59:14;100.07;;;58.87;;
13083;SDS011;6608;48.790;9.198;2023-03-01T09:01:43;100.87;;;59.90;;
13083;SDS011;6608;48.790;9.198;2023-03-01T09:04:10;105.27;;;60.90;;
13083;SDS011;6608;48.790;9.198;2023-03-01T09:06:36;103.23;;;59.70;;
13083;SDS011;6608;48.790;9.198;2023-03-01T09:09:03;107.47;;;60.93;;
13083;SDS011;6608;48.790;9.198;2023-03-01T09:11:29;104.53;;;60.27;;
13083;SDS011;6608;48.790;9.198;2023-03-01T09:13:56;104.73;;;60.10;;
13083;SDS011;6608;48.790;9.198;2023-03-01T09:16:23;106.30;;;60.67;;
13083;SDS011;6608;48.790;9.198;2023-03-01T09:18:51;108.40;;;61.23;;
13083;SDS011;6608;48.790;9.198;2023-03-01T09:21:18;105.57;;;59.97;;
13083;SDS011;6608;48.790;9.198;2023-03-01T09:23:46;106.63;;;61.43;;
13083;SDS011;6608;48.790;9.198;2023-03-01T09:26:13;109.90;;;61.83;;
13083;SDS011;6608;48.790;9.198;2023-03-01T09:28:41;112.63;;;61.83;;
13083;SDS011;6608;48.790;9.198;2023-03-01T09:31:09;107.17;;;61.43;;
13083;SDS011;6608;48.790;9.198;2023-03-01T09:33:37;107.80;;;60.87;;
13083;SDS011;6608;48.790;9.198;2023-03-01T09:36:06;108.10;;;60.73;;
13083;SDS011;6608;48.790;9.198;2023-03-01T09:38:33;111.97;;;62.57;;
13083;SDS011;6608;48.790;9.198;2023-03-01T09:41:00;113.27;;;61.97;;
13083;SDS011;6608;48.790;9.198;2023-03-01T09:43:27;110.00;;;62.30;;
13083;SDS011;6608;48.790;9.198;2023-03-01T09:45:58;107.50;;;60.07;;
13083;SDS011;6608;48.790;9.198;2023-03-01T09:48:26;109.77;;;61.23;;
13083;SDS011;6608;48.790;9.198;2023-03-01T09:50:52;110.63;;;61.50;;
13083;SDS011;6608;48.790;9.198;2023-03-01T09:53:21;117.83;;;64.17;;
13083;SDS011;6608;48.790;9.198;2023-03-01T09:55:50;123.13;;;68.63;;
13083;SDS011;6608;48.790;9.198;2023-03-01T10:01:02;115.40;;;63.73;;
13083;SDS011;6608;48.790;9.198;2023-03-01T10:03:36;114.10;;;61.77;;
13083;SDS011;6608;48.790;9.198;2023-03-01T10:06:06;114.30;;;61.70;;
13083;SDS011;6608;48.790;9.198;2023-03-01T10:08:37;113.43;;;61.37;;
13083;SDS011;6608;48.790;9.198;2023-03-01T10:11:12;111.83;;;62.07;;
13083;SDS011;6608;48.790;9.198;2023-03-01T10:13:45;113.80;;;62.87;;
13083;SDS011;6608;48.790;9.198;2023-03-01T10:16:14;114.57;;;62.23;;
13083;SDS011;6608;48.790;9.198;2023-03-01T10:18:42;115.50;;;62.40;;
13083;SDS011;6608;48.790;9.198;2023-03-01T10:21:13;116.37;;;62.90;;
13083;SDS011;6608;48.790;9.198;2023-03-01T10:23:41;115.07;;;62.03;;
13083;SDS011;6608;48.790;9.198;2023-03-01T10:28:55;120.70;;;63.50;;
13083;SDS011;6608;48.790;9.198;2023-03-01T10:31:25;121.30;;;62.97;;
13083;SDS011;6608;48.790;9.198;2023-03-01T10:33:54;129.63;;;69.47;;
13083;SDS011;6608;48.790;9.198;2023-03-01T10:36:22;140.93;;;74.73;;
13083;SDS011;6608;48.790;9.198;2023-03-01T10:38:51;122.03;;;65.27;;
13083;SDS011;6608;48.790;9.198;2023-03-01T10:41:19;121.50;;;64.63;;
13083;SDS011;6608;48.790;9.198;2023-03-01T10:43:49;118.10;;;61.70;;
13083;SDS011;6608;48.790;9.198;2023-03-01T10:46:22;121.17;;;64.23;;
13083;SDS011;6608;48.790;9.198;2023-03-01T10:48:53;120.47;;;63.13;;
13083;SDS011;6608;48.790;9.198;2023-03-01T10:51:30;127.13;;;65.40;;
13083;SDS011;6608;48.790;9.198;2023-03-01T10:53:58;124.30;;;65.10;;
13083;SDS011;6608;48.790;9.198;2023-03-01T10:56:25;125.23;;;64.37;;
13083;SDS011;6608;48.790;9.198;2023-03-01T10:58:58;130.13;;;66.80;;
13083;SDS011;6608;48.790;9.198;2023-03-01T11:01:25;131.03;;;66.20;;
13083;SDS011;6608;48.790;9.198;2023-03-01T11:04:03;128.70;;;65.17;;
13083;SDS011;6608;48.790;9.198;2023-03-01T11:06:36;124.60;;;65.03;;
13083;SDS011;6608;48.790;9.198;2023-03-01T11:09:13;128.57;;;66.60;;
13083;SDS011;6608;48.790;9.198;2023-03-01T11:11:40;128.67;;;67.40;;
13083;SDS011;6608;48.790;9.198;2023-03-01T11:14:12;131.37;;;67.30;;
13083;SDS011;6608;48.790;9.198;2023-03-01T11:16:40;129.90;;;67.00;;
13083;SDS011;6608;48.790;9.198;2023-03-01T11:19:17;132.37;;;67.37;;
13083;SDS011;6608;48.790;9.198;2023-03-01T11:21:47;135.80;;;67.70;;
13083;SDS011;6608;48.790;9.198;2023-03-01T11:24:17;136.10;;;69.87;;
13083;SDS011;6608;48.790;9.198;2023-03-01T11:26:45;134.93;;;68.70;;
13083;SDS011;6608;48.790;9.198;2023-03-01T11:29:18;128.27;;;65.60;;
13083;SDS011;6608;48.790;9.198;2023-03-01T11:31:47;129.17;;;67.83;;
13083;SDS011;6608;48.790;9.198;2023-03-01T11:34:14;131.00;;;67.67;;
13083;SDS011;6608;48.790;9.198;2023-03-01T11:36:42;128.57;;;65.77;;
13083;SDS011;6608;48.790;9.198;2023-03-01T11:39:25;128.50;;;65.03;;
13083;SDS011;6608;48.790;9.198;2023-03-01T11:41:58;133.80;;;68.57;;
13083;SDS011;6608;48.790;9.198;2023-03-01T11:44:27;139.27;;;74.03;;
13083;SDS011;6608;48.790;9.198;2023-03-01T11:47:01;132.80;;;69.27;;
13083;SDS011;6608;48.790;9.198;2023-03-01T11:49:51;129.03;;;66.40;;
13083;SDS011;6608;48.790;9.198;2023-03-01T11:52:22;129.90;;;66.70;;
13083;SDS011;6608;48.790;9.198;2023-03-01T11:54:55;129.00;;;65.33;;
13083;SDS011;6608;48.790;9.198;2023-03-01T11:57:30;131.27;;;66.93;;
13083;SDS011;6608;48.790;9.198;2023-03-01T12:00:11;133.47;;;67.90;;
13083;SDS011;6608;48.790;9.198;2023-03-01T12:02:45;126.10;;;65.63;;
13083;SDS011;6608;48.790;9.198;2023-03-01T12:05:21;126.27;;;65.33;;
13083;SDS011;6608;48.790;9.198;2023-03-01T12:07:52;126.97;;;65.57;;
13083;SDS011;6608;48.790;9.198;2023-03-01T12:10:20;127.30;;;66.20;;
13083;SDS011;6608;48.790;9.198;2023-03-01T12:12:53;132.67;;;68.10;;
13083;SDS011;6608;48.790;9.198;2023-03-01T12:15:28;129.07;;;65.67;;
13083;SDS011;6608;48.790;9.198;2023-03-01T12:18:08;128.50;;;65.63;;
13083;SDS011;6608;48.790;9.198;2023-03-01T12:20:40;129.97;;;65.90;;
13083;SDS011;6608;48.790;9.198;2023-03-01T12:23:22;130.77;;;66.37;;
13083;SDS011;6608;48.790;9.198;2023-03-01T12:25:53;130.67;;;66.63;;
13083;SDS011;6608;48.790;9.198;2023-03-01T12:28:29;128.13;;;64.97;;
13083;SDS011;6608;48.790;9.198;2023-03-01T12:33:42;131.20;;;66.07;;
13083;SDS011;6608;48.790;9.198;2023-03-01T12:36:14;131.90;;;68.10;;
13083;SDS011;6608;48.790;9.198;2023-03-01T12:38:45;132.80;;;68.30;;
13083;SDS011;6608;48.790;9.198;2023-03-01T12:41:20;126.77;;;64.33;;
13083;SDS011;6608;48.790;9.198;2023-03-01T12:43:54;133.20;;;66.10;;
13083;SDS011;6608;48.790;9.198;2023-03-01T12:46:27;131.47;;;66.87;;
13083;SDS011;6608;48.790;9.198;2023-03-01T12:48:56;129.43;;;65.83;;
13083;SDS011;6608;48.790;9.198;2023-03-01T12:51:26;127.97;;;65.20;;
13083;SDS011;6608;48.790;9.198;2023-03-01T12:53:54;130.33;;;66.40;;
13083;SDS011;6608;48.790;9.198;2023-03-01T12:56:22;131.97;;;65.87;;
13083;SDS011;6608;48.790;9.198;2023-03-01T12:58:54;134.80;;;65.97;;
13083;SDS011;6608;48.790;9.198;2023-03-01T13:01:31;130.90;;;66.43;;
13083;SDS011;6608;48.790;9.198;2023-03-01T13:06:42;129.70;;;65.73;;
13083;SDS011;6608;48.790;9.198;2023-03-01T13:09:13;128.53;;;65.57;;
13083;SDS011;6608;48.790;9.198;2023-03-01T13:11:41;125.73;;;64.10;;
13083;SDS011;6608;48.790;9.198;2023-03-01T13:16:54;128.70;;;65.77;;
13083;SDS011;6608;48.790;9.198;2023-03-01T13:19:21;132.93;;;67.00;;
13083;SDS011;6608;48.790;9.198;2023-03-01T13:21:49;133.07;;;68.53;;
13083;SDS011;6608;48.790;9.198;2023-03-01T13:24:23;130.10;;;65.47;;
13083;SDS011;6608;48.790;9.198;2023-03-01T13:27:09;128.67;;;66.27;;
13083;SDS011;6608;48.790;9.198;2023-03-01T13:29:43;133.63;;;66.80;;
13083;SDS011;6608;48.790;9.198;2023-03-01T13:32:20;131.63;;;67.57;;
13083;SDS011;6608;48.790;9.198;2023-03-01T13:34:50;133.17;;;69.63;;
13083;SDS011;6608;48.790;9.198;2023-03-01T13:37:27;125.10;;;64.57;;
13083;SDS011;6608;48.790;9.198;2023-03-01T13:39:55;128.20;;;66.27;;
13083;SDS011;6608;48.790;9.198;2023-03-01T13:42:30;132.20;;;68.00;;
13083;SDS011;6608;48.790;9.198;2023-03-01T13:44:57;130.40;;;66.67;;
13083;SDS011;6608;48.790;9.198;2023-03-01T13:47:25;139.23;;;72.03;;
13083;SDS011;6608;48.790;9.198;2023-03-01T13:49:53;131.43;;;68.60;;
13083;SDS011;6608;48.790;9.198;2023-03-01T13:52:27;128.60;;;66.43;;
13083;SDS011;6608;48.790;9.198;2023-03-01T13:54:55;132.83;;;67.30;;
13083;SDS011;6608;48.790;9.198;2023-03-01T13:57:23;129.63;;;67.17;;
13083;SDS011;6608;48.790;9.198;2023-03-01T13:59:50;135.37;;;67.33;;
13083;SDS011;6608;48.790;9.198;2023-03-01T14:02:17;141.32;;;72.20;;
13083;SDS011;6608;48.790;9.198;2023-03-01T14:04:46;132.23;;;66.70;;
13083;SDS011;6608;48.790;9.198;2023-03-01T14:07:22;129.83;;;67.53;;
13083;SDS011;6608;48.790;9.198;2023-03-01T14:09:51;135.17;;;69.60;;
13083;SDS011;6608;48.790;9.198;2023-03-01T14:12:21;129.30;;;68.13;;
13083;SDS011;6608;48.790;9.198;2023-03-01T14:14:52;140.27;;;73.90;;
13083;SDS011;6608;48.790;9.198;2023-03-01T14:17:23;134.00;;;67.93;;
13083;SDS011;6608;48.790;9.198;2023-03-01T14:19:56;130.93;;;65.87;;
13083;SDS011;6608;48.790;9.198;2023-03-01T14:22:24;126.47;;;66.67;;
13083;SDS011;6608;48.790;9.198;2023-03-01T14:24:54;129.27;;;67.33;;
13083;SDS011;6608;48.790;9.198;2023-03-01T14:27:21;129.50;;;66.93;;
13083;SDS011;6608;48.790;9.198;2023-03-01T14:29:54;130.80;;;68.40;;
13083;SDS011;6608;48.790;9.198;2023-03-01T14:32:21;127.10;;;66.63;;
13083;SDS011;6608;48.790;9.198;2023-03-01T14:34:49;135.03;;;71.53;;
13083;SDS011;6608;48.790;9.198;2023-03-01T14:37:19;128.03;;;66.90;;
13083;SDS011;6608;48.790;9.198;2023-03-01T14:39:46;129.87;;;66.93;;
13083;SDS011;6608;48.790;9.198;2023-03-01T14:42:12;128.87;;;65.83;;
13083;SDS011;6608;48.790;9.198;2023-03-01T14:44:40;131.53;;;66.17;;
13083;SDS011;6608;48.790;9.198;2023-03-01T14:47:10;125.47;;;66.03;;
13083;SDS011;6608;48.790;9.198;2023-03-01T14:49:38;128.40;;;68.30;;